Time;durP1;ratioP1;P1;durP2;ratioP2;P2;SDS_P1;SDS_P2;PMS_P1;PMS_P2;Temp;Humidity;BMP_temperature;BMP_pressure;BME280_temperature;BME280_humidity;BME280_pressure;Samples;Min_cycle;Max_cycle;Signal;HPM_P1;HPM_P2
2022/09/07 00:03:11;;;;;;;;;;;;;;;22.45;56.29;95589.41;10244557;28;2066;-45
2022/09/07 00:08:11;;;;;;;;;;;;;;;22.47;56.45;95598.63;10242754;28;1977;-46
2022/09/07 00:13:11;;;;;;;;;;;;;;;22.55;56.12;95600.59;10246372;28;1886;-45
2022/09/07 00:18:12;;;;;;;;;;;;;;;22.54;56.48;95606.19;10251813;28;2011;-46
2022/09/07 00:23:12;;;;;;;;;;;;;;;22.52;56.57;95601.16;10266510;28;2073;-47
2022/09/07 00:28:12;;;;;;;;;;;;;;;22.46;56.64;95607.59;10255431;28;2262;-45
2022/09/07 00:33:13;;;;;;;;;;;;;;;22.45;56.45;95606.03;10256345;28;2073;-46
2022/09/07 00:38:13;;;;;;;;;;;;;;;22.41;56.92;95596.34;10256228;28;2110;-46
2022/09/07 00:43:15;;;;;;;;;;;;;;;22.39;56.98;95596.63;10246991;28;1997;-47
2022/09/07 00:48:18;;;;;;;;;;;;;;;22.48;56.61;95604.69;10262985;28;2022;-47
2022/09/07 00:53:20;;;;;;;;;;;;;;;22.48;56.68;95597.53;10260181;28;2221;-48
2022/09/07 00:58:21;;;;;;;;;;;;;;;22.43;56.79;95596.84;10268486;28;2236;-46
2022/09/07 01:03:32;;;;;;;;;;;;;;;22.34;57.27;95599.34;10262471;28;2227;-48
2022/09/07 01:08:34;;;;;;;;;;;;;;;22.35;57.35;95610.69;10264089;28;1918;-47
2022/09/07 01:13:35;;;;;;;;;;;;;;;22.32;57.40;95606.78;10247409;28;1919;-44
2022/09/07 01:18:35;;;;;;;;;;;;;;;22.28;57.36;95605.78;10249233;28;2037;-45
2022/09/07 01:23:58;;;;;;;;;;;;;;;22.20;57.61;95601.16;10245403;28;2081;-45
2022/09/07 01:29:02;;;;;;;;;;;;;;;22.23;57.66;95603.22;10237871;28;1994;-44
2022/09/07 01:34:09;;;;;;;;;;;;;;;22.20;57.55;95610.91;10246173;28;2114;-45
2022/09/07 01:39:09;;;;;;;;;;;;;;;22.18;57.37;95611.22;10261901;28;2132;-48
2022/09/07 01:44:11;;;;;;;;;;;;;;;22.13;57.46;95607.88;10245579;28;2002;-44
2022/09/07 01:49:14;;;;;;;;;;;;;;;22.07;57.36;95598.47;10259596;28;2072;-44
2022/09/07 01:54:22;;;;;;;;;;;;;;;22.06;57.45;95607.44;10257936;28;2499;-47
2022/09/07 01:59:28;;;;;;;;;;;;;;;21.99;57.23;95597.22;10262857;28;2214;-46
2022/09/07 02:04:57;;;;;;;;;;;;;;;21.95;57.05;95612.06;10259901;28;2012;-49
2022/09/07 02:10:18;;;;;;;;;;;;;;;21.87;57.25;95615.34;10234262;28;2017;-46
2022/09/07 02:15:23;;;;;;;;;;;;;;;21.85;57.43;95614.84;10250058;28;2006;-47
2022/09/07 02:20:25;;;;;;;;;;;;;;;21.84;56.81;95610.66;10261748;28;2014;-46
2022/09/07 02:25:27;;;;;;;;;;;;;;;21.83;57.13;95603.78;10245448;28;2052;-47
2022/09/07 02:30:27;;;;;;;;;;;;;;;21.81;57.06;95605.91;10242404;28;1960;-44
2022/09/07 02:35:28;;;;;;;;;;;;;;;21.74;56.98;95605.47;10249714;28;2081;-47
2022/09/07 02:40:28;;;;;;;;;;;;;;;21.70;56.99;95602.59;10247008;28;1966;-45
2022/09/07 02:45:48;;;;;;;;;;;;;;;21.72;56.79;95602.34;10245894;28;2144;-48
2022/09/07 02:50:52;;;;;;;;;;;;;;;21.74;56.38;95585.13;10219750;28;2129;-48
2022/09/07 02:55:55;;;;;;;;;;;;;;;21.78;56.08;95595.94;10257020;28;2026;-47
2022/09/07 03:01:05;;;;;;;;;;;;;;;21.75;56.37;95594.63;10248362;28;2125;-48
2022/09/07 03:06:06;;;;;;;;;;;;;;;21.74;55.97;95589.66;10247058;28;2296;-48
2022/09/07 03:11:06;;;;;;;;;;;;;;;21.72;56.44;95583.88;10254653;28;2241;-48
2022/09/07 03:16:10;;;;;;;;;;;;;;;21.67;56.30;95576.81;10242720;28;2054;-45
2022/09/07 03:21:10;;;;;;;;;;;;;;;21.74;55.90;95585.13;10258286;28;1922;-45
2022/09/07 03:26:17;;;;;;;;;;;;;;;21.76;55.93;95585.63;10242148;28;2462;-45
2022/09/07 03:31:17;;;;;;;;;;;;;;;21.73;56.02;95602.06;10258008;28;2093;-45
2022/09/07 03:36:17;;;;;;;;;;;;;;;21.68;55.83;95599.47;10242195;28;1943;-47
2022/09/07 03:41:18;;;;;;;;;;;;;;;21.70;56.09;95596.56;10244807;28;2032;-45
2022/09/07 03:46:18;;;;;;;;;;;;;;;21.73;55.80;95593.34;10240176;28;2094;-44
2022/09/07 03:51:18;;;;;;;;;;;;;;;21.71;55.81;95600.75;10267037;28;2095;-46
2022/09/07 03:56:19;;;;;;;;;;;;;;;21.71;55.77;95606.84;10256356;28;2077;-45
2022/09/07 04:01:21;;;;;;;;;;;;;;;21.70;55.83;95612.41;10251863;28;2063;-46
2022/09/07 04:06:21;;;;;;;;;;;;;;;21.63;55.83;95615.38;10250483;28;2002;-45
2022/09/07 04:11:21;;;;;;;;;;;;;;;21.65;56.03;95617.72;10249085;28;2086;-51
2022/09/07 04:16:25;;;;;;;;;;;;;;;21.70;55.85;95612.41;10247405;28;2007;-46
2022/09/07 04:21:27;;;;;;;;;;;;;;;21.70;55.72;95604.47;10252103;28;2121;-47
2022/09/07 04:26:31;;;;;;;;;;;;;;;21.65;55.60;95609.81;10250758;28;2007;-51
2022/09/07 04:31:34;;;;;;;;;;;;;;;21.64;56.03;95618.78;10249163;28;2034;-47
2022/09/07 04:36:34;;;;;;;;;;;;;;;21.66;55.79;95621.91;10252244;28;1882;-49
2022/09/07 04:41:35;;;;;;;;;;;;;;;21.65;55.90;95621.16;10247612;28;2026;-45
2022/09/07 04:46:35;;;;;;;;;;;;;;;21.64;56.18;95616.94;10243713;28;1911;-47
2022/09/07 04:51:35;;;;;;;;;;;;;;;21.63;56.09;95606.66;10253363;28;2013;-49
2022/09/07 04:56:35;;;;;;;;;;;;;;;21.64;56.21;95608.22;10263301;28;1947;-45
2022/09/07 05:01:36;;;;;;;;;;;;;;;21.65;56.22;95615.09;10246873;28;1960;-48
2022/09/07 05:06:36;;;;;;;;;;;;;;;21.62;56.04;95629.63;10249039;28;2057;-49
2022/09/07 05:11:36;;;;;;;;;;;;;;;21.63;55.88;95623.28;10264058;28;1761;-49
2022/09/07 05:16:37;;;;;;;;;;;;;;;21.68;55.86;95633.75;10251269;28;2064;-46
2022/09/07 05:21:37;;;;;;;;;;;;;;;21.67;55.57;95626.13;10246561;28;2056;-47
2022/09/07 05:26:38;;;;;;;;;;;;;;;21.63;55.18;95631.19;10246980;28;2074;-46
2022/09/07 05:31:39;;;;;;;;;;;;;;;21.50;55.10;95634.53;10247056;28;1962;-47
2022/09/07 05:36:39;;;;;;;;;;;;;;;21.49;54.94;95645.34;10245486;28;2046;-45
2022/09/07 05:41:40;;;;;;;;;;;;;;;21.29;54.76;95645.59;10242380;28;2054;-45
2022/09/07 05:46:40;;;;;;;;;;;;;;;21.25;54.94;95670.91;10243097;28;2037;-47
2022/09/07 05:51:40;;;;;;;;;;;;;;;21.26;55.69;95670.66;10242647;28;1860;-44
2022/09/07 05:56:42;;;;;;;;;;;;;;;21.28;55.95;95680.91;10241464;28;2069;-45
2022/09/07 06:01:42;;;;;;;;;;;;;;;21.33;56.48;95683.50;10238766;28;2007;-47
2022/09/07 06:06:43;;;;;;;;;;;;;;;21.43;56.19;95693.94;10239502;28;2033;-45
2022/09/07 06:11:43;;;;;;;;;;;;;;;21.50;55.93;95710.22;10242994;28;2413;-43
2022/09/07 06:16:44;;;;;;;;;;;;;;;21.55;56.70;95707.53;10235143;28;1914;-48
2022/09/07 06:21:44;;;;;;;;;;;;;;;21.60;56.68;95710.88;10236645;28;2007;-46
2022/09/07 06:26:44;;;;;;;;;;;;;;;21.71;56.92;95712.34;10237203;28;2031;-45
2022/09/07 06:31:44;;;;;;;;;;;;;;;21.83;56.81;95712.78;10238482;28;2093;-46
2022/09/07 06:36:50;;;;;;;;;;;;;;;21.80;57.46;95710.66;10236565;28;2069;-45
2022/09/07 06:41:50;;;;;;;;;;;;;;;21.78;57.33;95710.16;10230907;28;2133;-43
2022/09/07 06:46:50;;;;;;;;;;;;;;;21.88;57.72;95715.34;10236082;28;2076;-47
2022/09/07 06:51:51;;;;;;;;;;;;;;;21.98;57.39;95714.44;10236055;28;2019;-46
2022/09/07 06:56:51;;;;;;;;;;;;;;;21.97;57.62;95720.78;10233582;28;2031;-47
2022/09/07 07:01:51;;;;;;;;;;;;;;;21.90;57.67;95717.72;10235564;28;2076;-45
2022/09/07 07:06:52;;;;;;;;;;;;;;;21.93;57.94;95719.78;10235495;28;2103;-45
2022/09/07 07:11:59;;;;;;;;;;;;;;;21.95;57.01;95712.34;10231588;28;2035;-47
2022/09/07 07:16:59;;;;;;;;;;;;;;;21.88;56.80;95711.94;10236485;28;2069;-45
2022/09/07 07:22:00;;;;;;;;;;;;;;;21.80;56.71;95720.44;10235177;28;2076;-46
2022/09/07 07:27:00;;;;;;;;;;;;;;;21.77;56.19;95719.16;10238456;28;2046;-46
2022/09/07 07:32:00;;;;;;;;;;;;;;;21.85;56.09;95730.94;10232987;28;2077;-47
2022/09/07 07:37:01;;;;;;;;;;;;;;;21.89;55.16;95742.50;10240620;28;1938;-44
2022/09/07 07:42:01;;;;;;;;;;;;;;;21.91;54.50;95740.38;10238607;28;2050;-47
2022/09/07 07:47:01;;;;;;;;;;;;;;;21.96;54.52;95744.81;10219447;28;2001;-46
2022/09/07 07:52:02;;;;;;;;;;;;;;;21.98;53.90;95725.00;10235597;28;2031;-46
2022/09/07 07:57:03;;;;;;;;;;;;;;;22.07;54.23;95731.22;10238670;28;1916;-47
2022/09/07 08:02:03;;;;;;;;;;;;;;;22.10;53.98;95735.13;10236387;28;2058;-44
2022/09/07 08:07:04;;;;;;;;;;;;;;;22.10;54.09;95730.66;10234654;28;2045;-46
2022/09/07 08:12:04;;;;;;;;;;;;;;;22.10;53.70;95730.66;10238182;28;2054;-45
2022/09/07 08:17:04;;;;;;;;;;;;;;;22.16;53.54;95721.59;10238206;28;1852;-44
2022/09/07 08:22:05;;;;;;;;;;;;;;;22.19;53.48;95728.97;10251106;28;2199;-44
2022/09/07 08:27:06;;;;;;;;;;;;;;;22.24;53.55;95736.00;10238537;28;1959;-44
2022/09/07 08:32:06;;;;;;;;;;;;;;;22.32;53.79;95728.25;10231604;28;1995;-47
2022/09/07 08:37:06;;;;;;;;;;;;;;;22.34;53.30;95720.81;10243376;28;1844;-46
2022/09/07 08:42:33;;;;;;;;;;;;;;;22.38;53.21;95716.53;10242956;28;2007;-44
2022/09/07 08:47:33;;;;;;;;;;;;;;;22.43;53.23;95705.91;10233955;28;2113;-44
2022/09/07 08:52:41;;;;;;;;;;;;;;;22.49;52.87;95711.91;10239815;28;1918;-44
2022/09/07 08:57:50;;;;;;;;;;;;;;;22.59;52.68;95711.78;10258824;28;2005;-45
2022/09/07 09:02:50;;;;;;;;;;;;;;;22.55;52.82;95705.47;10257037;28;1875;-47
2022/09/07 09:08:09;;;;;;;;;;;;;;;22.63;52.54;95694.28;10243729;28;2158;-46
2022/09/07 09:13:15;;;;;;;;;;;;;;;22.70;52.43;95699.22;10240677;28;2070;-46
2022/09/07 09:18:28;;;;;;;;;;;;;;;22.79;52.41;95705.41;10240202;28;2078;-44
2022/09/07 09:23:33;;;;;;;;;;;;;;;22.80;52.56;95699.84;10240319;28;2132;-46
2022/09/07 09:28:33;;;;;;;;;;;;;;;22.84;52.31;95698.19;10257642;28;2154;-45
2022/09/07 09:33:34;;;;;;;;;;;;;;;22.91;52.48;95684.59;10238200;28;2031;-45
2022/09/07 09:38:35;;;;;;;;;;;;;;;22.95;52.49;95680.31;10244969;28;1986;-44
2022/09/07 09:43:35;;;;;;;;;;;;;;;22.98;52.15;95677.09;10237619;28;2078;-44
2022/09/07 09:48:38;;;;;;;;;;;;;;;23.01;52.02;95673.84;10244804;28;2022;-46
2022/09/07 09:53:46;;;;;;;;;;;;;;;23.07;51.75;95670.06;10242137;28;2093;-41
2022/09/07 09:58:47;;;;;;;;;;;;;;;23.12;51.59;95672.63;10255634;28;1977;-46
2022/09/07 10:03:47;;;;;;;;;;;;;;;23.12;51.05;95673.38;10252936;28;1974;-47
2022/09/07 10:08:56;;;;;;;;;;;;;;;23.22;50.24;95659.22;10233749;28;2821;-44
2022/09/07 10:13:57;;;;;;;;;;;;;;;23.27;50.25;95664.41;10233171;28;1966;-46
2022/09/07 10:18:57;;;;;;;;;;;;;;;23.30;50.14;95664.63;10240120;28;2116;-46
2022/09/07 10:23:58;;;;;;;;;;;;;;;23.29;49.96;95660.38;10238614;28;2151;-44
2022/09/07 10:29:18;;;;;;;;;;;;;;;23.37;50.28;95666.88;10241065;28;2153;-43
2022/09/07 10:34:25;;;;;;;;;;;;;;;23.36;50.12;95663.47;10237889;28;2030;-44
2022/09/07 10:39:26;;;;;;;;;;;;;;;23.33;49.83;95665.91;10254766;28;1899;-44
2022/09/07 10:44:34;;;;;;;;;;;;;;;23.31;49.61;95665.38;10250215;28;1985;-43
2022/09/07 10:49:40;;;;;;;;;;;;;;;23.34;49.73;95654.25;10238915;28;2092;-44
2022/09/07 10:54:43;;;;;;;;;;;;;;;23.31;49.77;95654.78;10240218;28;1863;-43
2022/09/07 10:59:46;;;;;;;;;;;;;;;23.33;50.14;95642.09;10237918;28;2130;-43
2022/09/07 11:04:53;;;;;;;;;;;;;;;23.37;50.09;95640.44;10251773;28;2061;-45
2022/09/07 11:10:06;;;;;;;;;;;;;;;23.44;49.88;95624.97;10236896;28;2039;-44
2022/09/07 11:15:12;;;;;;;;;;;;;;;23.50;50.14;95615.84;10236626;28;1998;-43
2022/09/07 11:20:17;;;;;;;;;;;;;;;23.54;50.34;95614.19;10239609;28;2013;-43
2022/09/07 11:25:20;;;;;;;;;;;;;;;23.58;50.17;95604.56;10235548;28;2022;-44
2022/09/07 11:30:21;;;;;;;;;;;;;;;23.61;50.34;95595.25;10253815;28;1966;-44
2022/09/07 11:35:22;;;;;;;;;;;;;;;23.61;50.50;95593.41;10261256;28;2152;-43
2022/09/07 11:40:54;;;;;;;;;;;;;;;23.68;50.23;95590.38;10239973;28;2026;-43
2022/09/07 11:46:13;;;;;;;;;;;;;;;23.71;50.37;95587.91;10218128;28;2112;-45
2022/09/07 11:51:20;;;;;;;;;;;;;;;23.77;50.08;95573.47;10239838;28;2129;-42
2022/09/07 11:56:24;;;;;;;;;;;;;;;23.88;50.24;95581.97;10251026;28;2029;-46
2022/09/07 12:01:44;;;;;;;;;;;;;;;23.93;49.63;95581.84;10234431;28;2094;-42
2022/09/07 12:06:47;;;;;;;;;;;;;;;24.05;49.08;95580.28;10235805;28;1915;-47
2022/09/07 12:12:06;;;;;;;;;;;;;;;24.03;48.97;95571.84;10245671;28;2148;-48
2022/09/07 12:17:25;;;;;;;;;;;;;;;24.06;49.08;95571.25;10257114;28;1902;-47
2022/09/07 12:22:25;;;;;;;;;;;;;;;23.97;49.82;95573.03;10243786;28;2100;-43
2022/09/07 12:27:29;;;;;;;;;;;;;;;24.05;49.80;95571.56;10242129;28;1903;-43
2022/09/07 12:32:47;;;;;;;;;;;;;;;23.97;50.23;95566.94;10242226;28;2043;-44
2022/09/07 12:37:48;;;;;;;;;;;;;;;23.96;50.52;95558.22;10242696;28;2093;-45
2022/09/07 12:42:48;;;;;;;;;;;;;;;23.98;50.52;95548.13;10244896;28;2006;-48
2022/09/07 12:47:55;;;;;;;;;;;;;;;24.03;50.51;95555.13;10246025;28;2053;-43
2022/09/07 12:53:08;;;;;;;;;;;;;;;24.04;50.48;95552.25;10241920;28;2053;-45
2022/09/07 12:58:27;;;;;;;;;;;;;;;24.06;50.06;95544.00;10256657;28;2108;-42
2022/09/07 13:03:40;;;;;;;;;;;;;;;24.07;50.00;95527.81;10245580;28;2056;-44
2022/09/07 13:08:59;;;;;;;;;;;;;;;24.09;49.84;95522.97;10248834;28;2034;-47
2022/09/07 13:14:03;;;;;;;;;;;;;;;24.11;49.74;95517.41;10243206;28;2098;-46
2022/09/07 13:19:03;;;;;;;;;;;;;;;24.12;49.64;95511.00;10241510;28;2002;-45
2022/09/07 13:24:17;;;;;;;;;;;;;;;24.14;49.43;95506.19;10243418;28;2057;-44
2022/09/07 13:29:18;;;;;;;;;;;;;;;24.13;49.64;95502.00;10242064;28;2018;-48
2022/09/07 13:34:42;;;;;;;;;;;;;;;24.14;49.02;95491.09;10241219;28;1998;-45
2022/09/07 13:39:44;;;;;;;;;;;;;;;24.19;48.83;95500.78;10238710;28;2125;-45
2022/09/07 13:44:50;;;;;;;;;;;;;;;24.16;48.87;95488.13;10239862;28;1910;-44
2022/09/07 13:49:59;;;;;;;;;;;;;;;24.16;48.75;95483.63;10246527;28;2061;-44
2022/09/07 13:54:59;;;;;;;;;;;;;;;24.17;48.84;95471.19;10253774;28;2271;-45
2022/09/07 14:00:00;;;;;;;;;;;;;;;24.16;48.47;95473.03;10242572;28;2174;-42
2022/09/07 14:05:00;;;;;;;;;;;;;;;24.18;48.51;95464.78;10241038;28;1990;-45
2022/09/07 14:10:13;;;;;;;;;;;;;;;24.19;48.23;95451.22;10242925;28;2066;-44
2022/09/07 14:15:26;;;;;;;;;;;;;;;24.20;48.14;95447.50;10239107;28;2118;-45
2022/09/07 14:20:27;;;;;;;;;;;;;;;24.20;47.99;95444.88;10254719;28;2107;-46
2022/09/07 14:25:27;;;;;;;;;;;;;;;24.20;46.94;95436.91;10242075;28;2168;-45
2022/09/07 14:30:28;;;;;;;;;;;;;;;24.18;46.89;95431.16;10240302;28;1930;-44
2022/09/07 14:35:32;;;;;;;;;;;;;;;24.16;46.66;95428.03;10258248;28;1987;-45
2022/09/07 14:40:32;;;;;;;;;;;;;;;24.19;46.99;95435.34;10251297;28;2005;-42
2022/09/07 14:45:33;;;;;;;;;;;;;;;24.20;47.11;95431.63;10237348;28;2204;-44
2022/09/07 14:50:34;;;;;;;;;;;;;;;24.22;47.51;95437.41;10243986;28;2045;-44
2022/09/07 14:55:36;;;;;;;;;;;;;;;24.24;47.53;95424.63;10240869;28;2027;-48
2022/09/07 15:00:36;;;;;;;;;;;;;;;24.25;47.55;95410.28;10243400;28;2014;-46
2022/09/07 15:05:49;;;;;;;;;;;;;;;24.27;47.46;95404.72;10254104;28;2045;-45
2022/09/07 15:11:00;;;;;;;;;;;;;;;24.28;47.33;95403.59;10239493;28;2022;-44
2022/09/07 15:16:01;;;;;;;;;;;;;;;24.29;47.37;95407.03;10239081;28;2097;-43
2022/09/07 15:21:01;;;;;;;;;;;;;;;24.28;47.15;95397.53;10241437;28;1950;-45
2022/09/07 15:26:02;;;;;;;;;;;;;;;24.29;47.17;95394.59;10239491;28;2053;-44
2022/09/07 15:31:03;;;;;;;;;;;;;;;24.30;47.32;95395.38;10232938;28;2049;-42
2022/09/07 15:36:03;;;;;;;;;;;;;;;24.29;47.45;95394.59;10240502;28;2037;-42
2022/09/07 15:41:03;;;;;;;;;;;;;;;24.28;47.20;95387.72;10238076;28;2022;-44
2022/09/07 15:46:05;;;;;;;;;;;;;;;24.29;47.14;95383.19;10240085;28;1997;-44
2022/09/07 15:51:05;;;;;;;;;;;;;;;24.28;46.72;95381.66;10243922;28;1994;-42
2022/09/07 15:56:06;;;;;;;;;;;;;;;24.30;46.05;95377.59;10247725;28;1990;-47
2022/09/07 16:01:06;;;;;;;;;;;;;;;24.24;46.32;95376.94;10244559;28;1902;-42
2022/09/07 16:06:09;;;;;;;;;;;;;;;24.23;46.53;95362.13;10244891;28;2147;-44
2022/09/07 16:11:11;;;;;;;;;;;;;;;24.25;46.16;95362.59;10242236;28;2052;-43
2022/09/07 16:16:11;;;;;;;;;;;;;;;24.27;46.29;95358.88;10247311;28;2045;-45
2022/09/07 16:21:12;;;;;;;;;;;;;;;24.24;46.37;95354.97;10247506;28;2119;-46
2022/09/07 16:26:12;;;;;;;;;;;;;;;24.20;46.66;95354.81;10247557;28;2122;-45
2022/09/07 16:31:14;;;;;;;;;;;;;;;24.17;46.62;95350.13;10248431;28;2467;-44
2022/09/07 16:36:14;;;;;;;;;;;;;;;24.14;46.73;95350.75;10256438;28;1985;-45
2022/09/07 16:41:16;;;;;;;;;;;;;;;24.13;46.85;95353.72;10256440;28;2022;-46
2022/09/07 16:46:17;;;;;;;;;;;;;;;24.12;46.80;95339.69;10245688;28;2014;-45
2022/09/07 16:51:21;;;;;;;;;;;;;;;24.15;45.74;95335.66;10250090;28;2026;-46
2022/09/07 16:56:22;;;;;;;;;;;;;;;24.12;45.75;95341.53;10248119;28;2276;-47
2022/09/07 17:01:23;;;;;;;;;;;;;;;24.18;47.06;95340.31;10247526;28;2039;-44
2022/09/07 17:06:29;;;;;;;;;;;;;;;24.24;47.75;95320.53;10250479;28;2287;-45
2022/09/07 17:11:30;;;;;;;;;;;;;;;24.32;48.65;95324.34;10246938;28;2355;-44
2022/09/07 17:16:34;;;;;;;;;;;;;;;24.33;48.88;95325.88;10249601;28;2049;-46
2022/09/07 17:21:35;;;;;;;;;;;;;;;24.28;49.29;95334.75;10255368;28;2351;-43
2022/09/07 17:26:35;;;;;;;;;;;;;;;24.30;49.53;95326.50;10245934;28;2273;-48
2022/09/07 17:31:37;;;;;;;;;;;;;;;24.22;49.79;95330.66;10249612;28;2288;-49
2022/09/07 17:36:37;;;;;;;;;;;;;;;24.28;49.58;95323.38;10250104;28;2073;-44
2022/09/07 17:41:38;;;;;;;;;;;;;;;24.32;49.75;95330.38;10252990;28;1979;-48
2022/09/07 17:46:38;;;;;;;;;;;;;;;24.27;49.91;95321.81;10248250;28;2365;-47
2022/09/07 17:51:38;;;;;;;;;;;;;;;24.23;50.09;95319.75;10251103;28;2384;-44
2022/09/07 17:56:39;;;;;;;;;;;;;;;24.26;50.29;95323.66;10247083;28;2292;-43
2022/09/07 18:01:49;;;;;;;;;;;;;;;24.29;50.55;95319.63;10247320;28;2140;-45
2022/09/07 18:06:50;;;;;;;;;;;;;;;24.29;50.71;95324.94;10242224;28;2385;-43
2022/09/07 18:11:50;;;;;;;;;;;;;;;24.25;50.97;95320.22;10264366;28;2293;-45
2022/09/07 18:16:50;;;;;;;;;;;;;;;24.23;51.07;95324.31;10245140;28;2333;-44
2022/09/07 18:21:51;;;;;;;;;;;;;;;24.22;51.02;95304.19;10244563;28;2025;-46
2022/09/07 18:26:51;;;;;;;;;;;;;;;24.21;50.90;95314.00;10242588;28;2483;-45
2022/09/07 18:31:51;;;;;;;;;;;;;;;24.15;51.32;95314.47;10245978;28;2334;-43
2022/09/07 18:36:52;;;;;;;;;;;;;;;24.17;51.25;95305.09;10247190;28;2132;-45
2022/09/07 18:41:54;;;;;;;;;;;;;;;24.11;51.36;95319.56;10236858;28;2296;-43
2022/09/07 18:46:54;;;;;;;;;;;;;;;24.09;51.41;95327.03;10238257;28;2383;-44
2022/09/07 18:51:55;;;;;;;;;;;;;;;24.12;51.19;95326.44;10245250;28;2347;-45
2022/09/07 18:56:55;;;;;;;;;;;;;;;24.16;51.37;95327.38;10239359;28;2424;-45
2022/09/07 19:01:56;;;;;;;;;;;;;;;24.17;51.53;95320.97;10238966;28;2081;-48
2022/09/07 19:06:56;;;;;;;;;;;;;;;24.18;51.51;95322.56;10255584;28;2337;-49
2022/09/07 19:11:56;;;;;;;;;;;;;;;24.21;51.40;95331.78;10240770;28;2314;-47
2022/09/07 19:16:57;;;;;;;;;;;;;;;24.22;51.51;95318.22;10243069;28;2274;-48
2022/09/07 19:22:00;;;;;;;;;;;;;;;24.23;51.27;95327.69;10246094;28;2216;-50
2022/09/07 19:27:00;;;;;;;;;;;;;;;24.23;51.59;95326.94;10256299;28;2035;-45
2022/09/07 19:32:03;;;;;;;;;;;;;;;24.21;51.43;95334.41;10238673;28;2319;-45
2022/09/07 19:37:05;;;;;;;;;;;;;;;24.22;51.33;95320.84;10240202;28;2323;-45
2022/09/07 19:42:05;;;;;;;;;;;;;;;24.21;51.51;95327.22;10239781;28;2112;-45
2022/09/07 19:47:06;;;;;;;;;;;;;;;24.22;51.58;95320.06;10237615;28;2349;-47
2022/09/07 19:52:06;;;;;;;;;;;;;;;24.22;51.54;95306.81;10241835;28;2267;-46
2022/09/07 19:57:07;;;;;;;;;;;;;;;24.19;51.42;95310.88;10242015;28;1997;-43
2022/09/07 20:02:08;;;;;;;;;;;;;;;24.20;51.42;95309.00;10240916;28;2322;-47
2022/09/07 20:07:08;;;;;;;;;;;;;;;24.19;51.33;95307.47;10254824;28;2412;-49
2022/09/07 20:12:08;;;;;;;;;;;;;;;24.19;51.42;95305.56;10240393;28;2317;-51
2022/09/07 20:17:09;;;;;;;;;;;;;;;24.19;51.51;95297.63;10241227;28;2323;-45
2022/09/07 20:22:09;;;;;;;;;;;;;;;24.19;51.67;95284.38;10237106;28;2382;-45
2022/09/07 20:27:16;;;;;;;;;;;;;;;24.19;51.35;95289.69;10240949;28;2533;-46
2022/09/07 20:32:16;;;;;;;;;;;;;;;24.21;51.42;95278.81;10246126;28;2430;-46
2022/09/07 20:37:16;;;;;;;;;;;;;;;24.21;51.29;95270.84;10246304;28;2344;-45
2022/09/07 20:42:17;;;;;;;;;;;;;;;24.18;51.43;95259.00;10255939;28;2353;-47
2022/09/07 20:47:18;;;;;;;;;;;;;;;24.18;51.60;95256.34;10254352;28;2288;-48
2022/09/07 20:52:18;;;;;;;;;;;;;;;24.19;51.56;95249.94;10249641;28;2063;-44
2022/09/07 20:57:20;;;;;;;;;;;;;;;24.19;51.38;95239.34;10253069;28;2093;-48
2022/09/07 21:02:20;;;;;;;;;;;;;;;24.19;51.35;95236.72;10249080;28;2449;-47
2022/09/07 21:07:20;;;;;;;;;;;;;;;24.18;51.49;95221.94;10252213;28;2352;-45
2022/09/07 21:12:21;;;;;;;;;;;;;;;24.18;51.41;95208.69;10247428;28;2005;-47
2022/09/07 21:17:21;;;;;;;;;;;;;;;24.20;51.50;95211.00;10245896;28;2352;-47
2022/09/07 21:22:21;;;;;;;;;;;;;;;24.18;51.66;95200.75;10242748;28;2021;-45
2022/09/07 21:27:22;;;;;;;;;;;;;;;24.17;51.37;95193.88;10247805;28;2332;-49
2022/09/07 21:32:23;;;;;;;;;;;;;;;24.18;51.45;95203.38;10245142;28;2348;-52
2022/09/07 21:37:23;;;;;;;;;;;;;;;24.17;51.46;95191.22;10246457;28;2341;-49
2022/09/07 21:42:23;;;;;;;;;;;;;;;24.18;51.60;95181.41;10245508;28;2498;-48
2022/09/07 21:47:24;;;;;;;;;;;;;;;24.17;51.50;95185.94;10240235;28;2305;-47
2022/09/07 21:52:24;;;;;;;;;;;;;;;24.17;51.42;95185.94;10241508;28;2335;-46
2022/09/07 21:57:25;;;;;;;;;;;;;;;24.16;51.33;95184.38;10250528;28;2520;-49
2022/09/07 22:02:25;;;;;;;;;;;;;;;24.15;51.51;95166.91;10249422;28;2255;-46
2022/09/07 22:07:25;;;;;;;;;;;;;;;24.17;51.22;95177.22;10243635;28;2092;-48
2022/09/07 22:12:27;;;;;;;;;;;;;;;24.16;51.37;95189.69;10246237;28;2433;-48
2022/09/07 22:17:27;;;;;;;;;;;;;;;24.15;51.41;95190.00;10252075;28;2074;-45
2022/09/07 22:22:27;;;;;;;;;;;;;;;24.15;51.33;95184.69;10241229;28;2057;-50
2022/09/07 22:27:27;;;;;;;;;;;;;;;24.15;51.09;95166.91;10246612;28;2313;-47
2022/09/07 22:32:28;;;;;;;;;;;;;;;24.15;51.47;95180.16;10243632;28;2333;-45
2022/09/07 22:37:28;;;;;;;;;;;;;;;24.15;51.37;95235.00;10248244;28;2333;-48
2022/09/07 22:42:28;;;;;;;;;;;;;;;24.14;51.46;95239.53;10242960;28;2418;-46
2022/09/07 22:47:29;;;;;;;;;;;;;;;24.14;51.51;95228.94;10244155;28;2385;-48
2022/09/07 22:52:29;;;;;;;;;;;;;;;24.14;51.23;95252.75;10240702;28;2347;-46
2022/09/07 22:57:32;;;;;;;;;;;;;;;24.14;51.46;95251.97;10248187;28;2380;-47
2022/09/07 23:02:32;;;;;;;;;;;;;;;24.14;51.29;95236.88;10245461;28;2369;-46
2022/09/07 23:07:32;;;;;;;;;;;;;;;24.14;51.38;95239.53;10245727;28;2313;-47
2022/09/07 23:12:33;;;;;;;;;;;;;;;24.14;51.27;95234.22;10241484;28;1995;-48
2022/09/07 23:17:33;;;;;;;;;;;;;;;24.14;51.52;95228.16;10244112;28;2158;-45
2022/09/07 23:22:33;;;;;;;;;;;;;;;24.14;51.45;95222.84;10241360;28;2321;-45
2022/09/07 23:27:34;;;;;;;;;;;;;;;24.12;51.41;95209.91;10245739;28;2054;-47
2022/09/07 23:32:34;;;;;;;;;;;;;;;24.11;51.36;95205.69;10247842;28;2292;-45
2022/09/07 23:37:34;;;;;;;;;;;;;;;24.05;51.42;95198.22;10243024;28;2273;-47
2022/09/07 23:42:34;;;;;;;;;;;;;;;24.02;51.69;95175.75;10246019;28;2397;-48
2022/09/07 23:47:35;;;;;;;;;;;;;;;23.99;51.67;95163.13;10241981;28;2346;-45
2022/09/07 23:52:36;;;;;;;;;;;;;;;23.98;51.73;95166.88;10246270;28;2099;-48
2022/09/07 23:57:42;;;;;;;;;;;;;;;23.95;52.05;95196.59;10244638;28;2029;-47
